createdAt,value
2017-10-04T00:01:14.599Z,96617
2017-10-04T00:03:43.275Z,96607
2017-10-04T00:06:11.960Z,96615
2017-10-04T00:08:40.636Z,96606
2017-10-04T00:11:09.315Z,96605
2017-10-04T00:13:37.986Z,96609
2017-10-04T00:16:06.670Z,96606
2017-10-04T00:18:35.347Z,96604
2017-10-04T00:21:04.039Z,96609
2017-10-04T00:26:53.803Z,96613
2017-10-04T00:29:22.484Z,96617
2017-10-04T00:31:58.203Z,96618
2017-10-04T00:34:26.884Z,96632
2017-10-04T00:36:57.216Z,96628
2017-10-04T00:39:26.756Z,96623
2017-10-04T00:41:56.469Z,96622
2017-10-04T00:44:25.136Z,96618
2017-10-04T00:46:53.819Z,96620
2017-10-04T00:49:22.495Z,96611
2017-10-04T00:51:54.275Z,96604
2017-10-04T00:54:22.952Z,96608
2017-10-04T00:56:51.642Z,96607
2017-10-04T00:59:26.511Z,96606
2017-10-04T01:01:55.195Z,96606
2017-10-04T01:04:23.875Z,96612
2017-10-04T01:06:53.318Z,96630
2017-10-04T01:09:22.859Z,96630
2017-10-04T01:11:57.839Z,96625
2017-10-04T01:14:32.816Z,96619
2017-10-04T01:17:01.498Z,96615
2017-10-04T01:19:30.201Z,96619
2017-10-04T01:21:58.851Z,96623
2017-10-04T01:24:27.539Z,96611
2017-10-04T01:26:56.215Z,96615
2017-10-04T01:29:31.157Z,96608
2017-10-04T01:31:59.827Z,96602
2017-10-04T01:34:28.512Z,96587
2017-10-04T01:36:57.188Z,96584
2017-10-04T01:39:32.104Z,96562
2017-10-04T01:42:00.779Z,96568
2017-10-04T01:44:35.710Z,96592
2017-10-04T01:47:04.390Z,96592
2017-10-04T01:49:40.086Z,96607
2017-10-04T01:52:11.816Z,96606
2017-10-04T01:54:40.500Z,96613
2017-10-04T01:57:11.968Z,96623
2017-10-04T01:59:41.371Z,96639
2017-10-04T02:02:10.047Z,96629
2017-10-04T02:04:38.735Z,96619
2017-10-04T02:07:13.739Z,96621
2017-10-04T02:09:43.182Z,96616
2017-10-04T02:12:17.966Z,96630
2017-10-04T02:14:47.435Z,96636
2017-10-04T02:17:22.438Z,96637
2017-10-04T02:19:51.136Z,96635
2017-10-04T02:22:19.806Z,96624
2017-10-04T02:24:48.479Z,96614
2017-10-04T02:27:17.184Z,96604
2017-10-04T02:29:45.863Z,96599
2017-10-04T02:32:20.190Z,96606
2017-10-04T02:34:49.703Z,96600
2017-10-04T02:37:18.382Z,96603
2017-10-04T02:39:47.953Z,96601
2017-10-04T02:42:17.394Z,96604
2017-10-04T02:44:46.059Z,96610
2017-10-04T02:47:14.739Z,96597
2017-10-04T02:49:43.411Z,96602
2017-10-04T02:52:18.242Z,96594
2017-10-04T02:54:47.684Z,96596
2017-10-04T02:57:17.122Z,96599
2017-10-04T02:59:45.795Z,96595
2017-10-04T03:02:14.479Z,96583
2017-10-04T03:04:43.147Z,96589
2017-10-04T03:07:12.600Z,96585
2017-10-04T03:09:47.516Z,96586
2017-10-04T03:12:16.209Z,96597
2017-10-04T03:18:05.216Z,96592
2017-10-04T03:20:34.697Z,96591
2017-10-04T03:23:05.018Z,96594
2017-10-04T03:25:39.931Z,96593
2017-10-04T03:28:08.606Z,96598
2017-10-04T03:30:38.050Z,96595
2017-10-04T03:33:06.728Z,96597
2017-10-04T03:35:35.399Z,96599
2017-10-04T03:38:04.080Z,96596
2017-10-04T03:40:32.759Z,96580
2017-10-04T03:43:01.439Z,96585
2017-10-04T03:45:36.317Z,96584
2017-10-04T03:48:06.719Z,96492
2017-10-04T03:50:35.394Z,96576
2017-10-04T03:53:10.324Z,96569
2017-10-04T03:55:39.851Z,96577
2017-10-04T03:58:15.404Z,96570
2017-10-04T04:00:54.534Z,96578
2017-10-04T04:03:23.183Z,96571
2017-10-04T04:05:51.869Z,96568
2017-10-04T04:08:20.555Z,96572
2017-10-04T04:10:49.232Z,96574
2017-10-04T04:13:18.678Z,96571
2017-10-04T04:15:47.354Z,96567
2017-10-04T04:18:16.026Z,96565
2017-10-04T04:20:50.899Z,96580
2017-10-04T04:23:19.571Z,96572
2017-10-04T04:25:48.254Z,96570
2017-10-04T04:28:16.924Z,96562
2017-10-04T04:30:46.363Z,96571
2017-10-04T04:33:15.904Z,96580
2017-10-04T04:35:44.585Z,96586
2017-10-04T04:38:31.073Z,96594
2017-10-04T04:41:00.567Z,96596
2017-10-04T04:43:35.536Z,96593
2017-10-04T04:46:05.876Z,96593
2017-10-04T04:48:34.542Z,96590
2017-10-04T04:51:09.513Z,96589
2017-10-04T04:53:38.199Z,96587
2017-10-04T04:56:07.087Z,96592
2017-10-04T04:58:36.045Z,96596
2017-10-04T05:01:05.580Z,96591
2017-10-04T05:03:34.618Z,96588
2017-10-04T05:06:05.230Z,96568
2017-10-04T05:08:33.911Z,96573
2017-10-04T05:11:02.587Z,96597
2017-10-04T05:13:31.259Z,96598
2017-10-04T05:15:59.945Z,96593
2017-10-04T05:18:34.936Z,96589
2017-10-04T05:21:03.648Z,96604
2017-10-04T05:23:39.208Z,96591
2017-10-04T05:26:07.915Z,96591
2017-10-04T05:28:38.210Z,96582
2017-10-04T05:31:13.135Z,96575
2017-10-04T05:33:41.806Z,96573
2017-10-04T05:36:16.718Z,96562
2017-10-04T05:38:45.387Z,96563
2017-10-04T05:41:14.056Z,96571
2017-10-04T05:43:42.776Z,96576
2017-10-04T05:46:17.551Z,96577
2017-10-04T05:48:46.231Z,96576
2017-10-04T05:51:14.907Z,96575
2017-10-04T05:53:44.559Z,96584
2017-10-04T05:56:19.322Z,96590
2017-10-04T05:58:47.998Z,96583
2017-10-04T06:01:23.039Z,96582
2017-10-04T06:03:57.934Z,96589
2017-10-04T06:06:26.756Z,96586
2017-10-04T06:08:55.407Z,96588
2017-10-04T06:11:24.082Z,96577
2017-10-04T06:13:59.136Z,96584
2017-10-04T06:16:29.459Z,96599
2017-10-04T06:18:58.139Z,96588
2017-10-04T06:21:26.811Z,96589
2017-10-04T06:24:01.698Z,96586
2017-10-04T06:26:30.371Z,96582
2017-10-04T06:28:59.056Z,96576
2017-10-04T06:31:27.723Z,96565
2017-10-04T06:33:57.248Z,96549
2017-10-04T06:36:32.018Z,96540
2017-10-04T06:39:06.958Z,96542
2017-10-04T06:41:35.629Z,96554
2017-10-04T06:44:05.083Z,96565
2017-10-04T06:46:34.613Z,96567
2017-10-04T06:49:03.310Z,96564
2017-10-04T06:51:31.983Z,96559
2017-10-04T06:54:06.805Z,96559
2017-10-04T06:56:35.684Z,96559
2017-10-04T06:59:04.370Z,96565
2017-10-04T07:01:34.086Z,96568
2017-10-04T07:04:02.783Z,96573
2017-10-04T07:06:38.516Z,96587
2017-10-04T07:09:08.827Z,96587
2017-10-04T07:11:43.776Z,96580
2017-10-04T07:14:12.468Z,96577
2017-10-04T07:16:47.263Z,96575
2017-10-04T07:19:16.989Z,96576
2017-10-04T07:21:51.920Z,96583
2017-10-04T07:24:20.603Z,96582
2017-10-04T07:26:49.301Z,96588
2017-10-04T07:29:18.791Z,96577
2017-10-04T07:31:47.500Z,96583
2017-10-04T07:34:22.411Z,96567
2017-10-04T07:36:51.169Z,96582
2017-10-04T07:39:19.858Z,96587
2017-10-04T07:41:48.549Z,96592
2017-10-04T07:44:17.243Z,96602
2017-10-04T07:46:45.938Z,96599
2017-10-04T07:49:14.664Z,96597
2017-10-04T07:51:50.399Z,96578
2017-10-04T07:54:19.122Z,96593
2017-10-04T07:56:53.976Z,96584
2017-10-04T07:59:22.695Z,96579
2017-10-04T08:01:53.006Z,96569
2017-10-04T08:04:21.694Z,96578
2017-10-04T08:06:51.323Z,96570
2017-10-04T08:09:21.637Z,96584
2017-10-04T08:11:56.547Z,96588
2017-10-04T08:14:25.232Z,96590
2017-10-04T08:16:55.574Z,96600
2017-10-04T08:19:24.271Z,96604
2017-10-04T08:21:52.983Z,96585
2017-10-04T08:24:27.878Z,96583
2017-10-04T08:26:56.615Z,96581
2017-10-04T08:29:25.311Z,96595
2017-10-04T08:31:53.996Z,96591
2017-10-04T08:34:22.694Z,96579
2017-10-04T08:36:57.667Z,96580
2017-10-04T08:39:33.432Z,96565
2017-10-04T08:42:08.335Z,96562
2017-10-04T08:44:37.040Z,96560
2017-10-04T08:50:17.935Z,96567
2017-10-04T08:52:46.636Z,96565
2017-10-04T08:55:17.984Z,96555
2017-10-04T08:57:46.784Z,96561
2017-10-04T09:00:16.236Z,96556
2017-10-04T09:02:44.921Z,96565
2017-10-04T09:05:37.299Z,96558
2017-10-04T09:08:12.112Z,96545
2017-10-04T09:10:46.922Z,96532
2017-10-04T09:13:15.627Z,96524
2017-10-04T09:15:45.218Z,96530
2017-10-04T09:18:13.898Z,96538
2017-10-04T09:20:48.731Z,96547
2017-10-04T09:23:23.539Z,96551
2017-10-04T09:25:56.298Z,96551
2017-10-04T09:28:31.159Z,96537
2017-10-04T09:31:06.019Z,96538
2017-10-04T09:33:34.715Z,96524
2017-10-04T09:36:03.382Z,96541
2017-10-04T09:38:32.070Z,96507
2017-10-04T09:41:06.943Z,96514
2017-10-04T09:43:36.391Z,96508
2017-10-04T09:46:11.303Z,96509
2017-10-04T09:48:39.999Z,96520
2017-10-04T09:51:08.675Z,96533
2017-10-04T09:53:37.377Z,96540
2017-10-04T09:56:06.047Z,96535
2017-10-04T09:58:34.723Z,96547
2017-10-04T10:01:09.672Z,96530
2017-10-04T10:03:38.351Z,96521
2017-10-04T10:06:07.041Z,96516
2017-10-04T10:08:35.720Z,96513
2017-10-04T10:11:05.256Z,96512
2017-10-04T10:13:33.942Z,96528
2017-10-04T10:16:02.615Z,96518
2017-10-04T10:18:32.931Z,96514
2017-10-04T10:21:01.613Z,96508
2017-10-04T10:23:30.307Z,96505
2017-10-04T10:25:58.991Z,96501
2017-10-04T10:28:28.511Z,96503
2017-10-04T10:30:59.056Z,96493
2017-10-04T10:33:28.536Z,96487
2017-10-04T10:35:57.227Z,96488
2017-10-04T10:38:27.004Z,96491
2017-10-04T10:40:55.816Z,96476
2017-10-04T10:43:24.495Z,96483
2017-10-04T10:45:59.361Z,96488
2017-10-04T10:48:28.076Z,96501
2017-10-04T10:50:56.732Z,96505
2017-10-04T10:53:25.448Z,96501
2017-10-04T10:55:54.896Z,96502
2017-10-04T10:58:23.578Z,96494
2017-10-04T11:00:58.540Z,96487
2017-10-04T11:03:27.335Z,96490
2017-10-04T11:05:56.017Z,96484
2017-10-04T11:08:24.725Z,96484
2017-10-04T11:10:53.398Z,96485
2017-10-04T11:13:22.854Z,96472
2017-10-04T11:15:56.497Z,96453
2017-10-04T11:18:25.183Z,96454
2017-10-04T11:20:53.860Z,96449
2017-10-04T11:23:22.575Z,96443
2017-10-04T11:25:57.500Z,96450
2017-10-04T11:28:27.072Z,96450
2017-10-04T11:30:55.760Z,96478
2017-10-04T11:33:24.435Z,96446
2017-10-04T11:35:53.148Z,96442
2017-10-04T11:38:28.091Z,96450
2017-10-04T11:40:56.808Z,96444
2017-10-04T11:43:26.332Z,96446
2017-10-04T11:45:55.019Z,96447
2017-10-04T11:48:30.039Z,96436
2017-10-04T11:51:03.783Z,96433
2017-10-04T11:53:38.784Z,96435
2017-10-04T11:56:07.456Z,96443
2017-10-04T11:58:36.132Z,96444
2017-10-04T12:01:11.159Z,96437
2017-10-04T12:03:40.604Z,96431
2017-10-04T12:06:15.599Z,96427
2017-10-04T12:08:44.283Z,96425
2017-10-04T12:11:12.965Z,96433
2017-10-04T12:13:41.696Z,96426
2017-10-04T12:16:10.791Z,96425
2017-10-04T12:18:41.023Z,96428
2017-10-04T12:21:11.458Z,96418
2017-10-04T12:23:40.127Z,96416
2017-10-04T12:26:16.138Z,96413
2017-10-04T12:28:44.922Z,96410
2017-10-04T12:31:13.611Z,96414
2017-10-04T12:33:43.054Z,96408
2017-10-04T12:36:18.599Z,96405
2017-10-04T12:38:47.416Z,96410
2017-10-04T12:41:16.701Z,96404
2017-10-04T12:43:45.857Z,96412
2017-10-04T12:46:15.209Z,96414
2017-10-04T12:48:50.764Z,96396
2017-10-04T12:51:19.634Z,96382
2017-10-04T12:53:48.369Z,96387
2017-10-04T12:56:24.436Z,96379
2017-10-04T12:58:53.659Z,96362
2017-10-04T13:01:23.048Z,96372
2017-10-04T13:03:52.187Z,96363
2017-10-04T13:06:21.328Z,96363
2017-10-04T13:08:51.573Z,96363
2017-10-04T13:11:26.988Z,96362
2017-10-04T13:13:56.183Z,96357
2017-10-04T13:16:25.498Z,96375
2017-10-04T13:18:55.152Z,96371
2017-10-04T13:21:30.578Z,96375
2017-10-04T13:23:59.885Z,96374
2017-10-04T13:26:30.978Z,96380
2017-10-04T13:29:00.956Z,96382
2017-10-04T13:31:30.166Z,96379
2017-10-04T13:33:59.120Z,96375
2017-10-04T13:36:29.943Z,96370
2017-10-04T13:38:59.284Z,96363
2017-10-04T13:41:29.764Z,96357
2017-10-04T13:43:59.032Z,96359
2017-10-04T13:46:28.600Z,96355
2017-10-04T13:49:04.115Z,96358
2017-10-04T13:51:33.132Z,96363
2017-10-04T13:54:02.289Z,96349
2017-10-04T13:56:33.028Z,96353
2017-10-04T13:59:03.214Z,96354
2017-10-04T14:01:32.445Z,96342
2017-10-04T14:04:01.582Z,96350
2017-10-04T14:06:30.720Z,96356
2017-10-04T14:09:06.201Z,96347
2017-10-04T14:11:35.244Z,96353
2017-10-04T14:14:04.412Z,96350
2017-10-04T14:16:34.730Z,96335
2017-10-04T14:19:04.917Z,96346
2017-10-04T14:21:34.078Z,96344
2017-10-04T14:24:03.472Z,96336
2017-10-04T14:26:32.755Z,96337
2017-10-04T14:29:01.930Z,96333
2017-10-04T14:31:31.680Z,96328
2017-10-04T14:34:07.037Z,96327
2017-10-04T14:36:36.516Z,96335
2017-10-04T14:39:05.263Z,96327
2017-10-04T14:41:34.013Z,96313
2017-10-04T14:44:09.002Z,96305
2017-10-04T14:46:37.684Z,96314
2017-10-04T14:49:06.363Z,96314
2017-10-04T14:51:35.071Z,96327
2017-10-04T14:54:03.748Z,96330
2017-10-04T14:56:32.443Z,96335
2017-10-04T14:59:03.352Z,96329
2017-10-04T15:01:32.038Z,96320
2017-10-04T15:04:07.004Z,96316
2017-10-04T15:06:36.554Z,96316
2017-10-04T15:09:11.496Z,96299
2017-10-04T15:11:41.047Z,96297
2017-10-04T15:14:09.731Z,96302
2017-10-04T15:16:38.440Z,96304
2017-10-04T15:19:08.280Z,96289
2017-10-04T15:21:38.277Z,96298
2017-10-04T15:24:07.269Z,96286
2017-10-04T15:26:36.362Z,96289
2017-10-04T15:29:05.813Z,96277
2017-10-04T15:31:34.996Z,96282
2017-10-04T15:34:04.305Z,96288
2017-10-04T15:36:33.739Z,96294
2017-10-04T15:39:03.273Z,96299
2017-10-04T15:41:32.637Z,96315
2017-10-04T15:44:01.924Z,96310
2017-10-04T15:46:32.051Z,96312
2017-10-04T15:49:01.186Z,96311
2017-10-04T15:51:36.556Z,96315
2017-10-04T15:54:05.973Z,96316
2017-10-04T15:56:42.238Z,96317
2017-10-04T15:59:19.452Z,96306
2017-10-04T16:01:48.806Z,96303
2017-10-04T16:04:18.684Z,96311
2017-10-04T16:06:47.625Z,96315
2017-10-04T16:09:23.398Z,96304
2017-10-04T16:11:52.849Z,96305
2017-10-04T16:14:21.832Z,96301
2017-10-04T16:16:58.051Z,96297
2017-10-04T16:19:27.159Z,96293
2017-10-04T16:21:56.351Z,96293
2017-10-04T16:24:31.295Z,96284
2017-10-04T16:26:59.984Z,96281
2017-10-04T16:29:29.511Z,96275
2017-10-04T16:31:58.222Z,96274
2017-10-04T16:34:26.922Z,96276
2017-10-04T16:36:55.611Z,96277
2017-10-04T16:39:24.329Z,96279
2017-10-04T16:41:53.016Z,96291
2017-10-04T16:44:22.689Z,96289
2017-10-04T16:46:52.206Z,96292
2017-10-04T16:49:20.896Z,96283
2017-10-04T16:51:49.708Z,96292
2017-10-04T16:54:18.415Z,96294
2017-10-04T16:56:47.107Z,96298
2017-10-04T16:59:22.107Z,96291
2017-10-04T17:01:50.859Z,96300
2017-10-04T17:04:19.847Z,96303
2017-10-04T17:06:49.585Z,96294
2017-10-04T17:09:18.444Z,96300
2017-10-04T17:11:54.081Z,96304
2017-10-04T17:14:29.689Z,96305
2017-10-04T17:16:58.688Z,96306
2017-10-04T17:19:27.800Z,96306
2017-10-04T17:21:57.657Z,96303
2017-10-04T17:24:26.566Z,96299
2017-10-04T17:27:02.751Z,96301
2017-10-04T17:29:31.753Z,96305
2017-10-04T17:32:01.388Z,96307
2017-10-04T17:34:31.133Z,96300
2017-10-04T17:36:59.979Z,96307
2017-10-04T17:39:28.665Z,96287
2017-10-04T17:42:04.392Z,96281
2017-10-04T17:44:35.316Z,96268
2017-10-04T17:47:15.807Z,96270
2017-10-04T17:49:46.487Z,96264
2017-10-04T17:52:15.269Z,96272
2017-10-04T17:54:44.334Z,96271
2017-10-04T17:57:13.939Z,96272
2017-10-04T17:59:51.322Z,96269
2017-10-04T18:02:20.542Z,96286
2017-10-04T18:04:59.078Z,96264
2017-10-04T18:07:41.248Z,96261
2017-10-04T18:10:35.125Z,96272
2017-10-04T18:13:14.898Z,96267
2017-10-04T18:16:03.870Z,96273
2017-10-04T18:18:33.141Z,96260
2017-10-04T18:21:01.958Z,96259
2017-10-04T18:26:17.081Z,96267
2017-10-04T18:28:58.965Z,96261
2017-10-04T18:31:38.748Z,96287
2017-10-04T18:34:29.348Z,96286
2017-10-04T18:36:59.684Z,96305
2017-10-04T18:39:42.773Z,96287
2017-10-04T18:42:18.583Z,96293
2017-10-04T18:44:47.838Z,96292
2017-10-04T18:47:24.447Z,96297
2017-10-04T18:50:10.634Z,96294
2017-10-04T18:55:58.275Z,96303
2017-10-04T19:19:16.056Z,96287
2017-10-04T19:21:57.896Z,96283
2017-10-04T19:24:32.820Z,96281
2017-10-04T19:27:14.867Z,96270
2017-10-04T19:29:53.677Z,96264
2017-10-04T19:35:42.494Z,96293
2017-10-04T19:54:21.886Z,96301
2017-10-04T20:06:36.576Z,96279
2017-10-04T20:31:46.774Z,96259
2017-10-04T20:34:16.611Z,96250
2017-10-04T20:37:00.127Z,96256
2017-10-04T21:00:59.356Z,96254
2017-10-04T21:20:02.939Z,96249
2017-10-04T21:22:36.219Z,96257
2017-10-04T21:34:47.612Z,96238
2017-10-04T21:37:45.026Z,96247
2017-10-04T21:40:14.600Z,96251
2017-10-04T21:42:43.469Z,96256
2017-10-04T21:45:30.539Z,96247
2017-10-04T23:38:17.519Z,96167
2017-10-04T23:40:53.277Z,96178
2017-10-04T23:43:32.672Z,96174
2017-10-04T23:55:47.137Z,96170
